createdAt,value
2023-02-06T00:01:18.880Z,4.00
2023-02-06T00:05:21.713Z,3.90
2023-02-06T00:09:24.514Z,3.90
2023-02-06T00:13:28.634Z,3.90
2023-02-06T00:17:31.400Z,3.90
2023-02-06T00:21:34.608Z,3.90
2023-02-06T00:25:37.573Z,3.90
2023-02-06T00:29:41.820Z,3.90
2023-02-06T00:33:44.633Z,3.80
2023-02-06T00:37:47.509Z,3.70
2023-02-06T00:41:50.931Z,3.60
2023-02-06T00:45:57.308Z,3.60
2023-02-06T00:50:00.121Z,3.70
2023-02-06T00:54:02.959Z,3.70
2023-02-06T00:58:05.746Z,3.70
2023-02-06T01:02:09.931Z,3.70
2023-02-06T01:06:12.745Z,3.70
2023-02-06T01:10:15.525Z,3.70
2023-02-06T01:14:18.306Z,3.70
2023-02-06T01:18:22.441Z,3.70
2023-02-06T01:22:25.406Z,3.70
2023-02-06T01:26:28.648Z,3.70
2023-02-06T01:30:32.504Z,3.60
2023-02-06T01:34:38.062Z,3.30
2023-02-06T01:38:41.974Z,3.10
2023-02-06T01:42:45.256Z,3.10
2023-02-06T01:46:49.744Z,3.20
2023-02-06T01:50:56.583Z,3.30
2023-02-06T01:55:03.805Z,3.40
2023-02-06T01:59:07.826Z,3.30
2023-02-06T02:03:10.689Z,3.30
2023-02-06T02:07:20.876Z,3.30
2023-02-06T02:11:26.320Z,3.40
2023-02-06T02:15:39.048Z,3.30
2023-02-06T02:20:19.101Z,3.30
2023-02-06T02:24:33.224Z,3.30
2023-02-06T02:29:13.281Z,3.30
2023-02-06T02:33:42.387Z,3.30
2023-02-06T02:37:59.438Z,3.30
2023-02-06T02:42:14.373Z,3.30
2023-02-06T02:46:23.449Z,3.30
2023-02-06T02:50:27.394Z,3.30
2023-02-06T02:54:31.559Z,3.40
2023-02-06T02:58:36.047Z,3.30
2023-02-06T03:02:41.374Z,3.20
2023-02-06T03:06:51.419Z,3.20
2023-02-06T03:11:03.930Z,3.10
2023-02-06T03:15:15.027Z,3.10
2023-02-06T03:19:21.286Z,3.10
2023-02-06T03:23:28.211Z,3.10
2023-02-06T03:27:33.606Z,3.00
2023-02-06T03:31:41.739Z,3.00
2023-02-06T03:35:44.895Z,2.90
2023-02-06T03:39:47.755Z,2.80
2023-02-06T03:43:53.205Z,2.80
2023-02-06T03:47:59.480Z,2.70
2023-02-06T03:52:12.232Z,2.70
2023-02-06T03:56:24.391Z,2.60
2023-02-06T04:00:30.587Z,2.60
2023-02-06T04:04:37.136Z,2.60
2023-02-06T04:08:39.928Z,2.60
2023-02-06T04:12:42.704Z,2.50
2023-02-06T04:16:46.885Z,2.30
2023-02-06T04:20:49.698Z,2.30
2023-02-06T04:24:52.511Z,2.30
2023-02-06T04:28:55.337Z,2.20
2023-02-06T04:32:59.496Z,2.20
2023-02-06T04:37:03.462Z,2.20
2023-02-06T04:41:08.078Z,2.20
2023-02-06T04:45:11.168Z,2.20
2023-02-06T04:49:16.237Z,2.10
2023-02-06T04:53:19.552Z,1.90
2023-02-06T04:57:22.376Z,1.90
2023-02-06T05:01:25.370Z,1.80
2023-02-06T05:05:29.699Z,1.80
2023-02-06T05:09:32.491Z,1.70
2023-02-06T05:13:35.971Z,1.70
2023-02-06T05:17:38.785Z,1.60
2023-02-06T05:21:42.913Z,1.60
2023-02-06T05:25:46.775Z,1.60
2023-02-06T05:29:49.567Z,1.60
2023-02-06T05:33:52.908Z,1.50
2023-02-06T05:37:58.304Z,1.50
2023-02-06T05:42:01.087Z,1.40
2023-02-06T05:46:03.924Z,1.40
2023-02-06T05:50:07.484Z,1.40
2023-02-06T05:54:11.852Z,1.30
2023-02-06T05:58:14.682Z,1.30
2023-02-06T06:02:17.908Z,1.30
2023-02-06T06:06:20.758Z,1.30
2023-02-06T06:10:25.126Z,1.20
2023-02-06T06:14:28.270Z,1.20
2023-02-06T06:18:31.133Z,1.20
2023-02-06T06:22:33.918Z,1.20
2023-02-06T06:26:38.097Z,1.20
2023-02-06T06:30:40.943Z,1.10
2023-02-06T06:34:43.871Z,1.10
2023-02-06T06:38:46.615Z,1.20
2023-02-06T06:42:50.811Z,1.20
2023-02-06T06:46:53.632Z,1.20
2023-02-06T06:50:56.495Z,1.20
2023-02-06T06:54:59.342Z,1.20
2023-02-06T06:59:03.513Z,1.20
2023-02-06T07:03:06.594Z,1.20
2023-02-06T07:07:09.752Z,1.30
2023-02-06T07:11:14.542Z,1.40
2023-02-06T07:15:18.735Z,1.60
2023-02-06T07:19:21.697Z,1.70
2023-02-06T07:23:24.499Z,1.70
2023-02-06T07:27:27.298Z,1.70
2023-02-06T07:31:31.512Z,1.80
2023-02-06T07:35:34.676Z,1.80
2023-02-06T07:39:37.777Z,1.90
2023-02-06T07:43:40.697Z,1.90
2023-02-06T07:47:45.350Z,2.00
2023-02-06T07:51:48.913Z,2.10
2023-02-06T07:55:51.772Z,2.20
2023-02-06T07:59:54.667Z,2.20
2023-02-06T08:03:59.143Z,2.30
2023-02-06T08:08:01.969Z,2.40
2023-02-06T08:12:05.098Z,2.50
2023-02-06T08:16:09.875Z,2.60
2023-02-06T08:20:14.502Z,2.80
2023-02-06T08:24:17.368Z,3.10
2023-02-06T08:28:20.221Z,3.20
2023-02-06T08:32:23.076Z,3.10
2023-02-06T08:36:27.948Z,3.20
2023-02-06T08:40:30.757Z,3.30
2023-02-06T08:44:33.767Z,3.50
2023-02-06T08:48:36.578Z,3.20
2023-02-06T08:52:41.081Z,3.40
2023-02-06T08:56:43.989Z,3.30
2023-02-06T09:00:46.813Z,3.40
2023-02-06T09:04:49.581Z,3.60
2023-02-06T09:08:54.447Z,3.90
2023-02-06T09:12:57.621Z,3.90
2023-02-06T09:17:00.443Z,3.80
2023-02-06T09:21:10.030Z,3.80
2023-02-06T09:25:14.122Z,4.00
2023-02-06T09:29:16.917Z,4.10
2023-02-06T09:33:19.738Z,4.30
2023-02-06T09:37:23.412Z,4.30
2023-02-06T09:41:31.588Z,4.40
2023-02-06T09:45:35.047Z,4.50
2023-02-06T09:49:41.113Z,4.60
2023-02-06T09:53:52.568Z,4.90
2023-02-06T09:58:07.150Z,5.10
2023-02-06T10:02:27.954Z,5.50
2023-02-06T10:06:38.527Z,6.50
2023-02-06T10:10:45.689Z,9.40
2023-02-06T10:14:54.102Z,8.60
2023-02-06T10:19:01.926Z,7.90
2023-02-06T10:23:12.923Z,7.10
2023-02-06T10:27:16.191Z,6.20
2023-02-06T10:31:40.572Z,5.60
2023-02-06T10:35:53.276Z,5.40
2023-02-06T10:40:05.652Z,5.20
2023-02-06T10:44:18.208Z,5.20
2023-02-06T10:48:29.370Z,5.20
2023-02-06T10:52:35.744Z,5.30
2023-02-06T10:56:44.275Z,5.20
2023-02-06T11:00:48.214Z,5.20
2023-02-06T11:04:56.775Z,5.10
2023-02-06T11:08:59.755Z,5.10
2023-02-06T11:13:06.655Z,5.10
2023-02-06T11:17:09.607Z,5.20
2023-02-06T11:21:16.204Z,5.20
2023-02-06T11:25:22.281Z,5.10
2023-02-06T11:29:27.770Z,5.00
2023-02-06T11:33:37.721Z,5.00
2023-02-06T11:37:42.997Z,4.90
2023-02-06T11:41:58.666Z,4.80
2023-02-06T11:46:13.850Z,4.90
2023-02-06T11:50:23.944Z,4.70
2023-02-06T11:54:29.929Z,4.80
2023-02-06T11:58:33.779Z,4.80
2023-02-06T12:02:40.022Z,4.80
2023-02-06T12:06:42.637Z,4.80
2023-02-06T12:10:53.335Z,4.90
2023-02-06T12:15:00.132Z,5.00
2023-02-06T12:19:06.270Z,5.00
2023-02-06T12:23:21.374Z,5.00
2023-02-06T12:27:30.358Z,5.00
2023-02-06T12:31:41.668Z,4.80
2023-02-06T12:35:49.680Z,4.60
2023-02-06T12:39:53.226Z,4.50
2023-02-06T12:44:00.892Z,4.40
2023-02-06T12:48:12.218Z,4.30
2023-02-06T12:52:20.053Z,4.10
2023-02-06T12:56:27.858Z,4.20
2023-02-06T13:00:50.724Z,4.20
2023-02-06T13:04:54.692Z,4.20
2023-02-06T13:09:00.128Z,4.30
2023-02-06T13:13:03.523Z,4.30
2023-02-06T13:17:11.816Z,4.20
2023-02-06T13:21:17.189Z,4.00
2023-02-06T13:25:56.208Z,3.90
2023-02-06T13:30:18.442Z,4.00
2023-02-06T13:34:22.893Z,3.80
2023-02-06T13:38:38.292Z,3.80
2023-02-06T13:42:48.985Z,4.00
2023-02-06T13:47:22.843Z,3.80
2023-02-06T13:51:43.706Z,3.90
2023-02-06T13:55:57.231Z,4.10
2023-02-06T14:00:03.604Z,4.10
2023-02-06T14:04:10.315Z,3.90
2023-02-06T14:08:24.484Z,3.80
2023-02-06T14:12:44.305Z,3.60
2023-02-06T14:16:55.618Z,3.70
2023-02-06T14:21:07.557Z,3.40
2023-02-06T14:25:29.648Z,3.40
2023-02-06T14:29:44.316Z,3.30
2023-02-06T14:34:05.143Z,3.20
2023-02-06T14:38:24.274Z,3.40
2023-02-06T14:42:33.163Z,3.70
2023-02-06T14:46:36.384Z,3.90
2023-02-06T14:50:42.124Z,3.80
2023-02-06T14:54:44.917Z,3.80
2023-02-06T14:58:51.233Z,3.90
2023-02-06T15:03:04.904Z,4.10
2023-02-06T15:07:07.649Z,4.20
2023-02-06T15:11:20.942Z,4.20
2023-02-06T15:15:26.893Z,4.10
2023-02-06T15:19:31.986Z,4.10
2023-02-06T15:23:55.353Z,4.00
2023-02-06T15:28:02.938Z,3.90
2023-02-06T15:32:18.021Z,3.90
2023-02-06T15:36:24.238Z,3.90
2023-02-06T15:40:31.794Z,3.80
2023-02-06T15:44:38.180Z,3.80
2023-02-06T15:48:49.866Z,3.70
2023-02-06T15:52:53.077Z,3.60
2023-02-06T15:57:01.974Z,3.60
2023-02-06T16:01:08.179Z,3.50
2023-02-06T16:05:26.220Z,3.50
2023-02-06T16:09:29.191Z,3.40
2023-02-06T16:13:33.417Z,3.40
2023-02-06T16:17:41.226Z,3.40
2023-02-06T16:21:47.370Z,3.30
2023-02-06T16:26:02.282Z,3.20
2023-02-06T16:30:05.518Z,3.30
2023-02-06T16:34:21.769Z,3.20
2023-02-06T16:38:25.946Z,3.20
2023-02-06T16:42:36.053Z,3.20
2023-02-06T16:46:38.845Z,3.20
2023-02-06T16:50:42.759Z,3.20
2023-02-06T16:54:47.083Z,3.20
2023-02-06T16:58:50.104Z,3.10
2023-02-06T17:02:53.676Z,3.20
2023-02-06T17:06:56.585Z,3.10
2023-02-06T17:11:00.800Z,3.10
2023-02-06T17:15:03.745Z,3.10
2023-02-06T17:19:06.528Z,3.10
2023-02-06T17:23:10.919Z,3.10
2023-02-06T17:27:17.607Z,3.00
2023-02-06T17:31:20.829Z,3.00
2023-02-06T17:35:23.650Z,3.00
2023-02-06T17:39:26.715Z,3.10
2023-02-06T17:43:31.118Z,3.00
2023-02-06T17:47:34.011Z,3.00
2023-02-06T17:51:36.946Z,3.00
2023-02-06T17:55:39.793Z,3.00
2023-02-06T17:59:43.974Z,3.00
2023-02-06T18:03:48.077Z,3.00
2023-02-06T18:07:51.842Z,3.00
2023-02-06T18:11:54.637Z,3.00
2023-02-06T18:15:58.891Z,2.90
2023-02-06T18:20:01.951Z,2.90
2023-02-06T18:24:05.523Z,2.90
2023-02-06T18:28:09.076Z,3.00
2023-02-06T18:32:13.965Z,3.00
2023-02-06T18:36:16.843Z,3.10
2023-02-06T18:40:20.152Z,3.00
2023-02-06T18:44:23.797Z,3.00
2023-02-06T18:48:27.942Z,3.00
2023-02-06T18:52:30.754Z,2.90
2023-02-06T18:56:33.772Z,2.80
2023-02-06T19:00:37.731Z,2.80
2023-02-06T19:04:42.653Z,2.90
2023-02-06T19:08:46.813Z,2.80
2023-02-06T19:12:49.768Z,2.90
2023-02-06T19:16:54.477Z,2.90
2023-02-06T19:20:58.643Z,2.90
2023-02-06T19:25:01.534Z,2.90
2023-02-06T19:29:04.527Z,2.80
2023-02-06T19:33:07.297Z,2.80
2023-02-06T19:37:12.406Z,2.40
2023-02-06T19:41:16.698Z,2.20
2023-02-06T19:45:19.573Z,1.80
2023-02-06T19:49:22.407Z,1.60
2023-02-06T19:53:26.524Z,1.40
2023-02-06T19:57:29.333Z,1.10
2023-02-06T20:01:32.708Z,1.10
2023-02-06T20:05:35.610Z,0.80
2023-02-06T20:09:41.883Z,0.80
2023-02-06T20:13:46.059Z,0.50
2023-02-06T20:17:51.785Z,0.40
2023-02-06T20:21:56.802Z,0.20
2023-02-06T20:26:02.751Z,0.30
2023-02-06T20:30:05.796Z,0.30
2023-02-06T20:34:08.562Z,0.20
2023-02-06T20:38:11.608Z,0.40
2023-02-06T20:42:16.121Z,0.60
2023-02-06T20:46:19.935Z,0.70
2023-02-06T20:50:22.820Z,0.80
2023-02-06T20:54:26.124Z,0.90
2023-02-06T20:58:30.697Z,0.70
2023-02-06T21:02:33.824Z,0.70
2023-02-06T21:06:38.033Z,1.00
2023-02-06T21:10:40.851Z,1.00
2023-02-06T21:14:45.216Z,0.90
2023-02-06T21:18:48.006Z,0.80
2023-02-06T21:22:52.832Z,0.60
2023-02-06T21:26:55.648Z,0.50
2023-02-06T21:31:04.114Z,0.40
2023-02-06T21:35:09.312Z,0.60
2023-02-06T21:39:16.676Z,0.80
2023-02-06T21:43:19.473Z,0.90
2023-02-06T21:47:23.629Z,0.90
2023-02-06T21:51:26.745Z,0.90
2023-02-06T21:55:31.484Z,0.90
2023-02-06T21:59:34.361Z,0.60
2023-02-06T22:03:38.457Z,0.10
2023-02-06T22:07:41.218Z,0.00
2023-02-06T22:11:45.002Z,-0.20
2023-02-06T22:15:51.241Z,-0.30
2023-02-06T22:19:55.930Z,-0.40
2023-02-06T22:24:00.786Z,-0.50
2023-02-06T22:28:03.633Z,-0.70
2023-02-06T22:32:07.324Z,-0.70
2023-02-06T22:36:14.628Z,-0.90
2023-02-06T22:40:17.868Z,-1.00
2023-02-06T22:44:21.664Z,-1.00
2023-02-06T22:48:24.867Z,-0.80
2023-02-06T22:52:46.324Z,-0.90
2023-02-06T22:56:49.161Z,-0.80
2023-02-06T23:00:51.975Z,-0.60
2023-02-06T23:04:54.742Z,-0.80
2023-02-06T23:08:59.399Z,-0.70
2023-02-06T23:13:02.169Z,-0.60
2023-02-06T23:17:04.996Z,-0.30
2023-02-06T23:21:10.703Z,-0.30
2023-02-06T23:25:14.837Z,-0.30
2023-02-06T23:29:19.435Z,-0.40
2023-02-06T23:33:23.272Z,-0.40
2023-02-06T23:37:26.183Z,-0.40
2023-02-06T23:41:30.922Z,-0.30
2023-02-06T23:45:33.981Z,-0.30
2023-02-06T23:49:36.813Z,-0.10
2023-02-06T23:53:39.646Z,-0.20
2023-02-06T23:57:44.170Z,-0.20
